PWSweather.com
Personal Weather Stations
Station Observations
ITROMSHA6
HarstadNO 9407

HarstadNO 9407

Lat: 68.7814767, Lon: 16.5297091

Elevation: 145

Station Type: Davis Vantage Pro2

Latest ConditionsUpdated 6:10:12 PM GMT+01:01 Sunday, Jan 26, 2020
Currently Today's Max Today's Min Today's Average
Temperature 20.9°F-6.2°C 27.0°F-2.8°C 19.4°F-7.0°C 23.7°F-4.6°C
Dew Point 10.6°F-11.9°C 19.2°F-7.1°C 9.3°F-12.6°C 12.7°F-10.7°C
Winds 2.0 mph WSW3.2 kmh WSW 15.0 mph -24.1 kmh - - 3.9 mph 6.3 kmh
Wind Gusts -- 21.0 mph33.8 kmh - -
Humidity 64% 73% 51% 62%
Pressure 29.75 in1007.5 mb 29.76 in1007.8 mb 29.53 in1000.0 mb -
Hour Temp Dew Point Humidity Winds Wind Gusts Pressure Precip Precip Rate Daily Precip Total
06:10 PM 20.9°F-6.2°C 10.6°F-11.9°C 64% 2.0 mph WSW3.2 kmh WSW -- 29.75 in1007.5 mb 0.00 in0.0 mm 0.00 in0.0 mm 0.00 in0.0 mm
06:05 PM 20.7°F-6.3°C 10.4°F-12.0°C 64% 2.0 mph WSW3.2 kmh WSW 6.0 mph9.7 kmh 29.75 in1007.5 mb 0.00 in0.0 mm 0.00 in0.0 mm 0.00 in0.0 mm
06:00 PM 21.2°F-6.0°C 10.9°F-11.7°C 64% 5.0 mph SW8.0 kmh SW -- 29.75 in1007.5 mb 0.00 in0.0 mm 0.00 in0.0 mm 0.00 in0.0 mm
05:55 PM 21.3°F-5.9°C 10.8°F-11.8°C 63% 4.0 mph WSW6.4 kmh WSW -- 29.75 in1007.5 mb 0.00 in0.0 mm 0.00 in0.0 mm 0.00 in0.0 mm
05:50 PM 21.4°F-5.9°C 10.8°F-11.8°C 63% 3.0 mph SW4.8 kmh SW -- 29.76 in1007.8 mb 0.00 in0.0 mm 0.00 in0.0 mm 0.00 in0.0 mm
05:45 PM 21.8°F-5.7°C 10.8°F-11.8°C 62% 4.0 mph WSW6.4 kmh WSW -- 29.76 in1007.8 mb 0.00 in0.0 mm 0.00 in0.0 mm 0.00 in0.0 mm
05:40 PM 22.3°F-5.4°C 10.6°F-11.9°C 60% 2.0 mph SSW3.2 kmh SSW 6.0 mph9.7 kmh 29.76 in1007.8 mb 0.00 in0.0 mm 0.00 in0.0 mm 0.00 in0.0 mm
05:35 PM 22.9°F-5.1°C 10.6°F-11.9°C 59% 1.0 mph SW1.6 kmh SW -- 29.75 in1007.5 mb 0.00 in0.0 mm 0.00 in0.0 mm 0.00 in0.0 mm
05:30 PM 22.9°F-5.1°C 11.1°F-11.6°C 60% 6.0 mph NNE9.7 kmh NNE -- 29.76 in1007.8 mb 0.00 in0.0 mm 0.00 in0.0 mm 0.00 in0.0 mm
05:25 PM 22.6°F-5.2°C 10.6°F-11.9°C 59% 10.0 mph ENE16.1 kmh ENE -- 29.75 in1007.5 mb 0.00 in0.0 mm 0.00 in0.0 mm 0.00 in0.0 mm
05:20 PM 22.4°F-5.3°C 10.8°F-11.8°C 60% Calm Calm -- 29.76 in1007.8 mb 0.00 in0.0 mm 0.00 in0.0 mm 0.00 in0.0 mm
05:15 PM 22.2°F-5.4°C 10.9°F-11.7°C 61% 3.0 mph SW4.8 kmh SW 7.0 mph11.3 kmh 29.75 in1007.5 mb 0.00 in0.0 mm 0.00 in0.0 mm 0.00 in0.0 mm
05:10 PM 21.8°F-5.7°C 10.8°F-11.8°C 62% 2.0 mph WSW3.2 kmh WSW -- 29.76 in1007.8 mb 0.00 in0.0 mm 0.00 in0.0 mm 0.00 in0.0 mm
05:05 PM 22.1°F-5.5°C 10.8°F-11.8°C 61% Calm Calm -- 29.75 in1007.5 mb 0.00 in0.0 mm 0.00 in0.0 mm 0.00 in0.0 mm
05:00 PM 21.6°F-5.8°C 10.6°F-11.9°C 62% 4.0 mph ENE6.4 kmh ENE -- 29.75 in1007.5 mb 0.00 in0.0 mm 0.00 in0.0 mm 0.00 in0.0 mm
04:55 PM 21.3°F-5.9°C 10.8°F-11.8°C 63% Calm Calm -- 29.75 in1007.5 mb 0.00 in0.0 mm 0.00 in0.0 mm 0.00 in0.0 mm
04:50 PM 21.0°F-6.1°C 10.8°F-11.8°C 64% 3.0 mph SW4.8 kmh SW 5.0 mph8.0 kmh 29.75 in1007.5 mb 0.00 in0.0 mm 0.00 in0.0 mm 0.00 in0.0 mm
04:45 PM 21.1°F-6.1°C 10.4°F-12.0°C 63% 1.0 mph WNW1.6 kmh WNW -- 29.75 in1007.5 mb 0.00 in0.0 mm 0.00 in0.0 mm 0.00 in0.0 mm
04:40 PM 21.3°F-5.9°C 10.8°F-11.8°C 63% 2.0 mph SW3.2 kmh SW -- 29.75 in1007.5 mb 0.00 in0.0 mm 0.00 in0.0 mm 0.00 in0.0 mm
04:35 PM 21.1°F-6.1°C 10.4°F-12.0°C 63% 4.0 mph WSW6.4 kmh WSW -- 29.75 in1007.5 mb 0.00 in0.0 mm 0.00 in0.0 mm 0.00 in0.0 mm
04:30 PM 21.5°F-5.8°C 10.9°F-11.7°C 63% 1.0 mph SW1.6 kmh SW -- 29.75 in1007.5 mb 0.00 in0.0 mm 0.00 in0.0 mm 0.00 in0.0 mm
04:25 PM 21.1°F-6.1°C 10.4°F-12.0°C 63% 5.0 mph WSW8.0 kmh WSW 7.0 mph11.3 kmh 29.75 in1007.5 mb 0.00 in0.0 mm 0.00 in0.0 mm 0.00 in0.0 mm
04:20 PM 21.3°F-5.9°C 10.8°F-11.8°C 63% 3.0 mph SW4.8 kmh SW -- 29.75 in1007.5 mb 0.00 in0.0 mm 0.00 in0.0 mm 0.00 in0.0 mm
04:15 PM 21.1°F-6.1°C 10.8°F-11.8°C 64% 4.0 mph WSW6.4 kmh WSW -- 29.75 in1007.5 mb 0.00 in0.0 mm 0.00 in0.0 mm 0.00 in0.0 mm
04:10 PM 21.1°F-6.1°C 10.8°F-11.8°C 64% 1.0 mph WSW1.6 kmh WSW -- 29.75 in1007.5 mb 0.00 in0.0 mm 0.00 in0.0 mm 0.00 in0.0 mm
04:05 PM 21.2°F-6.0°C 10.9°F-11.7°C 64% 2.0 mph WSW3.2 kmh WSW -- 29.75 in1007.5 mb 0.00 in0.0 mm 0.00 in0.0 mm 0.00 in0.0 mm
04:00 PM 20.6°F-6.3°C 10.4°F-12.0°C 64% 5.0 mph WNW8.0 kmh WNW 5.0 mph8.0 kmh 29.75 in1007.5 mb 0.00 in0.0 mm 0.00 in0.0 mm 0.00 in0.0 mm
03:55 PM 21.8°F-5.7°C 11.5°F-11.4°C 64% 2.0 mph SW3.2 kmh SW -- 29.75 in1007.5 mb 0.00 in0.0 mm 0.00 in0.0 mm 0.00 in0.0 mm
03:50 PM 21.7°F-5.7°C 11.1°F-11.6°C 63% 3.0 mph SW4.8 kmh SW -- 29.75 in1007.5 mb 0.00 in0.0 mm 0.00 in0.0 mm 0.00 in0.0 mm
03:45 PM 21.4°F-5.9°C 11.1°F-11.6°C 64% 2.0 mph SW3.2 kmh SW -- 29.75 in1007.5 mb 0.00 in0.0 mm 0.00 in0.0 mm 0.00 in0.0 mm
03:40 PM 20.8°F-6.2°C 11.3°F-11.5°C 66% 1.0 mph SW1.6 kmh SW -- 29.75 in1007.5 mb 0.00 in0.0 mm 0.00 in0.0 mm 0.00 in0.0 mm
03:35 PM 19.6°F-6.9°C 10.4°F-12.0°C 67% Calm Calm 5.0 mph8.0 kmh 29.75 in1007.5 mb 0.00 in0.0 mm 0.00 in0.0 mm 0.00 in0.0 mm
03:30 PM 19.8°F-6.8°C 10.2°F-12.1°C 66% 3.0 mph WSW4.8 kmh WSW -- 29.74 in1007.1 mb 0.00 in0.0 mm 0.00 in0.0 mm 0.00 in0.0 mm
03:25 PM 20.6°F-6.3°C 10.8°F-11.8°C 65% Calm Calm -- 29.74 in1007.1 mb 0.00 in0.0 mm 0.00 in0.0 mm 0.00 in0.0 mm
03:20 PM 20.6°F-6.3°C 10.4°F-12.0°C 64% 2.0 mph WSW3.2 kmh WSW -- 29.74 in1007.1 mb 0.00 in0.0 mm 0.00 in0.0 mm 0.00 in0.0 mm
03:15 PM 20.7°F-6.3°C 10.4°F-12.0°C 64% 4.0 mph WSW6.4 kmh WSW -- 29.74 in1007.1 mb 0.00 in0.0 mm 0.00 in0.0 mm 0.00 in0.0 mm
03:10 PM 21.0°F-6.1°C 11.1°F-11.6°C 65% Calm Calm 9.0 mph14.5 kmh 29.74 in1007.1 mb 0.00 in0.0 mm 0.00 in0.0 mm 0.00 in0.0 mm
03:05 PM 19.8°F-6.8°C 10.6°F-11.9°C 67% 6.0 mph S9.7 kmh S -- 29.74 in1007.1 mb 0.00 in0.0 mm 0.00 in0.0 mm 0.00 in0.0 mm
03:00 PM 20.7°F-6.3°C 10.8°F-11.8°C 65% 2.0 mph SW3.2 kmh SW -- 29.74 in1007.1 mb 0.00 in0.0 mm 0.00 in0.0 mm 0.00 in0.0 mm
02:55 PM 21.1°F-6.1°C 10.8°F-11.8°C 64% 3.0 mph SW4.8 kmh SW -- 29.74 in1007.1 mb 0.00 in0.0 mm 0.00 in0.0 mm 0.00 in0.0 mm
02:50 PM 21.6°F-5.8°C 10.9°F-11.7°C 63% 2.0 mph SW3.2 kmh SW -- 29.74 in1007.1 mb 0.00 in0.0 mm 0.00 in0.0 mm 0.00 in0.0 mm
02:45 PM 22.1°F-5.5°C 11.1°F-11.6°C 62% Calm Calm 7.0 mph11.3 kmh 29.74 in1007.1 mb 0.00 in0.0 mm 0.00 in0.0 mm 0.00 in0.0 mm
02:40 PM 22.3°F-5.4°C 10.9°F-11.7°C 61% 2.0 mph SW3.2 kmh SW -- 29.74 in1007.1 mb 0.00 in0.0 mm 0.00 in0.0 mm 0.00 in0.0 mm
02:35 PM 22.5°F-5.3°C 10.8°F-11.8°C 60% 6.0 mph SW9.7 kmh SW -- 29.74 in1007.1 mb 0.00 in0.0 mm 0.00 in0.0 mm 0.00 in0.0 mm
02:30 PM 22.5°F-5.3°C 10.8°F-11.8°C 60% 7.0 mph WSW11.3 kmh WSW -- 29.74 in1007.1 mb 0.00 in0.0 mm 0.00 in0.0 mm 0.00 in0.0 mm
02:25 PM 22.9°F-5.1°C 11.1°F-11.6°C 60% 2.0 mph SW3.2 kmh SW -- 29.74 in1007.1 mb 0.00 in0.0 mm 0.00 in0.0 mm 0.00 in0.0 mm
02:20 PM 23.0°F-5.0°C 10.8°F-11.8°C 59% Calm Calm 9.0 mph14.5 kmh 29.74 in1007.1 mb 0.00 in0.0 mm 0.00 in0.0 mm 0.00 in0.0 mm
02:15 PM 23.0°F-5.0°C 10.8°F-11.8°C 59% 3.0 mph SW4.8 kmh SW -- 29.74 in1007.1 mb 0.00 in0.0 mm 0.00 in0.0 mm 0.00 in0.0 mm
02:10 PM 23.0°F-5.0°C 11.3°F-11.5°C 60% 2.0 mph W3.2 kmh W -- 29.74 in1007.1 mb 0.00 in0.0 mm 0.00 in0.0 mm 0.00 in0.0 mm
02:05 PM 23.3°F-4.8°C 11.1°F-11.6°C 59% 2.0 mph SE3.2 kmh SE -- 29.73 in1006.8 mb 0.00 in0.0 mm 0.00 in0.0 mm 0.00 in0.0 mm
02:00 PM 23.5°F-4.7°C 11.7°F-11.3°C 60% Calm Calm -- 29.73 in1006.8 mb 0.00 in0.0 mm 0.00 in0.0 mm 0.00 in0.0 mm
01:55 PM 23.5°F-4.7°C 11.7°F-11.3°C 60% Calm Calm 12.0 mph19.3 kmh 29.73 in1006.8 mb 0.00 in0.0 mm 0.00 in0.0 mm 0.00 in0.0 mm
01:50 PM 23.2°F-4.9°C 11.8°F-11.2°C 61% 2.0 mph ENE3.2 kmh ENE -- 29.74 in1007.1 mb 0.00 in0.0 mm 0.00 in0.0 mm 0.00 in0.0 mm
01:45 PM 22.4°F-5.3°C 11.8°F-11.2°C 63% 7.0 mph E11.3 kmh E -- 29.74 in1007.1 mb 0.00 in0.0 mm 0.00 in0.0 mm 0.00 in0.0 mm
01:40 PM 22.1°F-5.5°C 11.1°F-11.6°C 62% 4.0 mph WNW6.4 kmh WNW -- 29.73 in1006.8 mb 0.00 in0.0 mm 0.00 in0.0 mm 0.00 in0.0 mm
01:35 PM 22.3°F-5.4°C 11.3°F-11.5°C 62% 3.0 mph WSW4.8 kmh WSW -- 29.73 in1006.8 mb 0.00 in0.0 mm 0.00 in0.0 mm 0.00 in0.0 mm
01:30 PM 22.1°F-5.5°C 11.1°F-11.6°C 62% 2.0 mph SSW3.2 kmh SSW 9.0 mph14.5 kmh 29.73 in1006.8 mb 0.00 in0.0 mm 0.00 in0.0 mm 0.00 in0.0 mm
01:25 PM 22.6°F-5.2°C 11.3°F-11.5°C 61% 4.0 mph SW6.4 kmh SW -- 29.73 in1006.8 mb 0.00 in0.0 mm 0.00 in0.0 mm 0.00 in0.0 mm
01:20 PM 23.3°F-4.8°C 11.5°F-11.4°C 60% 2.0 mph SW3.2 kmh SW -- 29.73 in1006.8 mb 0.00 in0.0 mm 0.00 in0.0 mm 0.00 in0.0 mm
01:15 PM 23.5°F-4.7°C 11.3°F-11.5°C 59% Calm Calm -- 29.73 in1006.8 mb 0.00 in0.0 mm 0.00 in0.0 mm 0.00 in0.0 mm
01:10 PM 23.8°F-4.6°C 11.8°F-11.2°C 60% 5.0 mph W8.0 kmh W -- 29.73 in1006.8 mb 0.00 in0.0 mm 0.00 in0.0 mm 0.00 in0.0 mm
01:05 PM 24.1°F-4.4°C 11.8°F-11.2°C 59% 2.0 mph N3.2 kmh N 15.0 mph24.1 kmh 29.73 in1006.8 mb 0.00 in0.0 mm 0.00 in0.0 mm 0.00 in0.0 mm
01:00 PM 24.4°F-4.2°C 12.2°F-11.0°C 59% 1.0 mph ESE1.6 kmh ESE -- 29.72 in1006.4 mb 0.00 in0.0 mm 0.00 in0.0 mm 0.00 in0.0 mm
12:55 PM 24.1°F-4.4°C 12.6°F-10.8°C 61% 1.0 mph SE1.6 kmh SE -- 29.73 in1006.8 mb 0.00 in0.0 mm 0.00 in0.0 mm 0.00 in0.0 mm
12:50 PM 23.3°F-4.8°C 12.4°F-10.9°C 62% 8.0 mph SSE12.9 kmh SSE -- 29.72 in1006.4 mb 0.00 in0.0 mm 0.00 in0.0 mm 0.00 in0.0 mm
12:45 PM 22.9°F-5.1°C 12.6°F-10.8°C 64% 6.0 mph S9.7 kmh S -- 29.72 in1006.4 mb 0.00 in0.0 mm 0.00 in0.0 mm 0.00 in0.0 mm
12:40 PM 22.4°F-5.3°C 12.6°F-10.8°C 65% 5.0 mph WSW8.0 kmh WSW 5.0 mph8.0 kmh 29.72 in1006.4 mb 0.00 in0.0 mm 0.00 in0.0 mm 0.00 in0.0 mm
12:35 PM 22.6°F-5.2°C 12.4°F-10.9°C 64% 3.0 mph WSW4.8 kmh WSW -- 29.72 in1006.4 mb 0.00 in0.0 mm 0.00 in0.0 mm 0.00 in0.0 mm
12:30 PM 23.2°F-4.9°C 12.2°F-11.0°C 62% 1.0 mph SW1.6 kmh SW -- 29.72 in1006.4 mb 0.00 in0.0 mm 0.00 in0.0 mm 0.00 in0.0 mm
12:25 PM 24.0°F-4.4°C 12.6°F-10.8°C 61% 4.0 mph E6.4 kmh E -- 29.72 in1006.4 mb 0.00 in0.0 mm 0.00 in0.0 mm 0.00 in0.0 mm
12:20 PM 24.2°F-4.3°C 12.4°F-10.9°C 60% Calm Calm -- 29.72 in1006.4 mb 0.00 in0.0 mm 0.00 in0.0 mm 0.00 in0.0 mm
12:15 PM 24.4°F-4.2°C 12.6°F-10.8°C 60% 4.0 mph E6.4 kmh E 11.0 mph17.7 kmh 29.72 in1006.4 mb 0.00 in0.0 mm 0.00 in0.0 mm 0.00 in0.0 mm
12:10 PM 24.4°F-4.2°C 12.6°F-10.8°C 60% 7.0 mph ENE11.3 kmh ENE -- 29.72 in1006.4 mb 0.00 in0.0 mm 0.00 in0.0 mm 0.00 in0.0 mm
12:05 PM 24.3°F-4.3°C 12.4°F-10.9°C 60% 2.0 mph E3.2 kmh E -- 29.72 in1006.4 mb 0.00 in0.0 mm 0.00 in0.0 mm 0.00 in0.0 mm
12:00 PM 24.1°F-4.4°C 12.2°F-11.0°C 60% 2.0 mph E3.2 kmh E -- 29.72 in1006.4 mb 0.00 in0.0 mm 0.00 in0.0 mm 0.00 in0.0 mm
11:55 AM 23.9°F-4.5°C 12.4°F-10.9°C 61% 6.0 mph SE9.7 kmh SE -- 29.71 in1006.1 mb 0.00 in0.0 mm 0.00 in0.0 mm 0.00 in0.0 mm
11:50 AM 23.6°F-4.7°C 11.7°F-11.3°C 60% 3.0 mph S4.8 kmh S 12.0 mph19.3 kmh 29.71 in1006.1 mb 0.00 in0.0 mm 0.00 in0.0 mm 0.00 in0.0 mm
11:45 AM 23.9°F-4.5°C 11.7°F-11.3°C 59% 1.0 mph NNE1.6 kmh NNE -- 29.71 in1006.1 mb 0.00 in0.0 mm 0.00 in0.0 mm 0.00 in0.0 mm
11:40 AM 24.2°F-4.3°C 11.7°F-11.3°C 58% 3.0 mph E4.8 kmh E -- 29.71 in1006.1 mb 0.00 in0.0 mm 0.00 in0.0 mm 0.00 in0.0 mm
11:35 AM 24.3°F-4.3°C 11.7°F-11.3°C 58% 3.0 mph NE4.8 kmh NE -- 29.71 in1006.1 mb 0.00 in0.0 mm 0.00 in0.0 mm 0.00 in0.0 mm
11:30 AM 24.2°F-4.3°C 12.0°F-11.1°C 59% 3.0 mph NE4.8 kmh NE -- 29.71 in1006.1 mb 0.00 in0.0 mm 0.00 in0.0 mm 0.00 in0.0 mm
11:25 AM 24.2°F-4.3°C 11.7°F-11.3°C 58% 2.0 mph E3.2 kmh E 11.0 mph17.7 kmh 29.71 in1006.1 mb 0.00 in0.0 mm 0.00 in0.0 mm 0.00 in0.0 mm
11:20 AM 24.2°F-4.3°C 11.7°F-11.3°C 58% 1.0 mph E1.6 kmh E -- 29.71 in1006.1 mb 0.00 in0.0 mm 0.00 in0.0 mm 0.00 in0.0 mm
11:15 AM 24.2°F-4.3°C 11.7°F-11.3°C 58% 5.0 mph ESE8.0 kmh ESE -- 29.71 in1006.1 mb 0.00 in0.0 mm 0.00 in0.0 mm 0.00 in0.0 mm
11:10 AM 24.3°F-4.3°C 11.3°F-11.5°C 57% Calm Calm -- 29.71 in1006.1 mb 0.00 in0.0 mm 0.00 in0.0 mm 0.00 in0.0 mm
11:05 AM 24.4°F-4.2°C 11.5°F-11.4°C 57% 5.0 mph NE8.0 kmh NE -- 29.71 in1006.1 mb 0.00 in0.0 mm 0.00 in0.0 mm 0.00 in0.0 mm
11:00 AM 24.3°F-4.3°C 11.3°F-11.5°C 57% 8.0 mph SE12.9 kmh SE 12.0 mph19.3 kmh 29.71 in1006.1 mb 0.00 in0.0 mm 0.00 in0.0 mm 0.00 in0.0 mm
10:55 AM 24.1°F-4.4°C 11.8°F-11.2°C 59% 7.0 mph E11.3 kmh E -- 29.71 in1006.1 mb 0.00 in0.0 mm 0.00 in0.0 mm 0.00 in0.0 mm
10:50 AM 24.2°F-4.3°C 12.0°F-11.1°C 59% 4.0 mph N6.4 kmh N -- 29.70 in1005.8 mb 0.00 in0.0 mm 0.00 in0.0 mm 0.00 in0.0 mm
10:45 AM 24.3°F-4.3°C 12.0°F-11.1°C 59% 7.0 mph ENE11.3 kmh ENE -- 29.70 in1005.8 mb 0.00 in0.0 mm 0.00 in0.0 mm 0.00 in0.0 mm
10:40 AM 24.3°F-4.3°C 11.7°F-11.3°C 58% 6.0 mph ENE9.7 kmh ENE -- 29.70 in1005.8 mb 0.00 in0.0 mm 0.00 in0.0 mm 0.00 in0.0 mm
10:35 AM 24.3°F-4.3°C 11.7°F-11.3°C 58% 4.0 mph E6.4 kmh E 13.0 mph20.9 kmh 29.70 in1005.8 mb 0.00 in0.0 mm 0.00 in0.0 mm 0.00 in0.0 mm
10:30 AM 24.4°F-4.2°C 11.8°F-11.2°C 58% 5.0 mph ESE8.0 kmh ESE -- 29.70 in1005.8 mb 0.00 in0.0 mm 0.00 in0.0 mm 0.00 in0.0 mm
10:25 AM 24.4°F-4.2°C 11.8°F-11.2°C 58% 1.0 mph SE1.6 kmh SE -- 29.70 in1005.8 mb 0.00 in0.0 mm 0.00 in0.0 mm 0.00 in0.0 mm
10:20 AM 23.9°F-4.5°C 11.7°F-11.3°C 59% Calm Calm -- 29.70 in1005.8 mb 0.00 in0.0 mm 0.00 in0.0 mm 0.00 in0.0 mm
10:15 AM 23.7°F-4.6°C 12.2°F-11.0°C 61% 2.0 mph WSW3.2 kmh WSW -- 29.70 in1005.8 mb 0.00 in0.0 mm 0.00 in0.0 mm 0.00 in0.0 mm
10:10 AM 23.6°F-4.7°C 12.0°F-11.1°C 61% 4.0 mph WNW6.4 kmh WNW 8.0 mph12.9 kmh 29.69 in1005.4 mb 0.00 in0.0 mm 0.00 in0.0 mm 0.00 in0.0 mm
10:05 AM 23.9°F-4.5°C 12.4°F-10.9°C 61% Calm Calm -- 29.69 in1005.4 mb 0.00 in0.0 mm 0.00 in0.0 mm 0.00 in0.0 mm
10:00 AM 24.1°F-4.4°C 12.6°F-10.8°C 61% 1.0 mph ENE1.6 kmh ENE -- 29.69 in1005.4 mb 0.00 in0.0 mm 0.00 in0.0 mm 0.00 in0.0 mm
09:55 AM 23.8°F-4.6°C 12.2°F-11.0°C 61% 2.0 mph ENE3.2 kmh ENE -- 29.69 in1005.4 mb 0.00 in0.0 mm 0.00 in0.0 mm 0.00 in0.0 mm
09:50 AM 23.3°F-4.8°C 12.4°F-10.9°C 62% 2.0 mph E3.2 kmh E -- 29.69 in1005.4 mb 0.00 in0.0 mm 0.00 in0.0 mm 0.00 in0.0 mm
09:45 AM 22.9°F-5.1°C 11.8°F-11.2°C 62% Calm Calm 5.0 mph8.0 kmh 29.69 in1005.4 mb 0.00 in0.0 mm 0.00 in0.0 mm 0.00 in0.0 mm
09:40 AM 22.9°F-5.1°C 11.8°F-11.2°C 62% 1.0 mph NE1.6 kmh NE -- 29.69 in1005.4 mb 0.00 in0.0 mm 0.00 in0.0 mm 0.00 in0.0 mm
09:35 AM 23.3°F-4.8°C 11.8°F-11.2°C 61% Calm Calm -- 29.68 in1005.1 mb 0.00 in0.0 mm 0.00 in0.0 mm 0.00 in0.0 mm
09:30 AM 23.7°F-4.6°C 12.2°F-11.0°C 61% Calm Calm -- 29.68 in1005.1 mb 0.00 in0.0 mm 0.00 in0.0 mm 0.00 in0.0 mm
09:25 AM 23.7°F-4.6°C 12.2°F-11.0°C 61% Calm Calm -- 29.68 in1005.1 mb 0.00 in0.0 mm 0.00 in0.0 mm 0.00 in0.0 mm
09:20 AM 23.7°F-4.6°C 12.2°F-11.0°C 61% 5.0 mph SSE8.0 kmh SSE 6.0 mph9.7 kmh 29.68 in1005.1 mb 0.00 in0.0 mm 0.00 in0.0 mm 0.00 in0.0 mm
09:15 AM 23.6°F-4.7°C 11.7°F-11.3°C 60% Calm Calm -- 29.68 in1005.1 mb 0.00 in0.0 mm 0.00 in0.0 mm 0.00 in0.0 mm
09:10 AM 23.6°F-4.7°C 12.0°F-11.1°C 61% 2.0 mph NE3.2 kmh NE -- 29.67 in1004.7 mb 0.00 in0.0 mm 0.00 in0.0 mm 0.00 in0.0 mm
09:05 AM 23.0°F-5.0°C 12.4°F-10.9°C 63% 5.0 mph ENE8.0 kmh ENE -- 29.67 in1004.7 mb 0.00 in0.0 mm 0.00 in0.0 mm 0.00 in0.0 mm
09:00 AM 21.5°F-5.8°C 12.0°F-11.1°C 66% 2.0 mph SSE3.2 kmh SSE -- 29.67 in1004.7 mb 0.00 in0.0 mm 0.00 in0.0 mm 0.00 in0.0 mm
08:55 AM 20.0°F-6.7°C 11.1°F-11.6°C 68% 1.0 mph WSW1.6 kmh WSW 6.0 mph9.7 kmh 29.66 in1004.4 mb 0.00 in0.0 mm 0.00 in0.0 mm 0.00 in0.0 mm
08:50 AM 19.4°F-7.0°C 10.9°F-11.7°C 69% 1.0 mph WSW1.6 kmh WSW -- 29.66 in1004.4 mb 0.00 in0.0 mm 0.00 in0.0 mm 0.00 in0.0 mm
08:45 AM 19.7°F-6.8°C 10.6°F-11.9°C 67% 4.0 mph WSW6.4 kmh WSW -- 29.66 in1004.4 mb 0.00 in0.0 mm 0.00 in0.0 mm 0.00 in0.0 mm
08:40 AM 20.1°F-6.6°C 10.6°F-11.9°C 66% 4.0 mph WSW6.4 kmh WSW -- 29.66 in1004.4 mb 0.00 in0.0 mm 0.00 in0.0 mm 0.00 in0.0 mm
08:35 AM 20.4°F-6.4°C 10.6°F-11.9°C 65% 3.0 mph WSW4.8 kmh WSW -- 29.66 in1004.4 mb 0.00 in0.0 mm 0.00 in0.0 mm 0.00 in0.0 mm
08:30 AM 21.3°F-5.9°C 10.8°F-11.8°C 63% 3.0 mph WSW4.8 kmh WSW 5.0 mph8.0 kmh 29.65 in1004.1 mb 0.00 in0.0 mm 0.00 in0.0 mm 0.00 in0.0 mm
08:25 AM 22.3°F-5.4°C 10.6°F-11.9°C 60% 2.0 mph WSW3.2 kmh WSW -- 29.65 in1004.1 mb 0.00 in0.0 mm 0.00 in0.0 mm 0.00 in0.0 mm
08:20 AM 23.8°F-4.6°C 11.5°F-11.4°C 59% Calm Calm -- 29.65 in1004.1 mb 0.00 in0.0 mm 0.00 in0.0 mm 0.00 in0.0 mm
08:15 AM 23.8°F-4.6°C 11.1°F-11.6°C 58% 2.0 mph ENE3.2 kmh ENE -- 29.65 in1004.1 mb 0.00 in0.0 mm 0.00 in0.0 mm 0.00 in0.0 mm
08:10 AM 23.9°F-4.5°C 10.9°F-11.7°C 57% 3.0 mph NE4.8 kmh NE -- 29.65 in1004.1 mb 0.00 in0.0 mm 0.00 in0.0 mm 0.00 in0.0 mm
08:05 AM 24.1°F-4.4°C 11.1°F-11.6°C 57% 3.0 mph NE4.8 kmh NE 10.0 mph16.1 kmh 29.65 in1004.1 mb 0.00 in0.0 mm 0.00 in0.0 mm 0.00 in0.0 mm
08:00 AM 24.3°F-4.3°C 10.9°F-11.7°C 56% 2.0 mph ENE3.2 kmh ENE -- 29.64 in1003.7 mb 0.00 in0.0 mm 0.00 in0.0 mm 0.00 in0.0 mm
07:55 AM 24.3°F-4.3°C 10.9°F-11.7°C 56% 8.0 mph E12.9 kmh E -- 29.64 in1003.7 mb 0.00 in0.0 mm 0.00 in0.0 mm 0.00 in0.0 mm
07:50 AM 23.9°F-4.5°C 11.3°F-11.5°C 58% Calm Calm -- 29.64 in1003.7 mb 0.00 in0.0 mm 0.00 in0.0 mm 0.00 in0.0 mm
07:45 AM 23.9°F-4.5°C 11.3°F-11.5°C 58% 1.0 mph ESE1.6 kmh ESE -- 29.64 in1003.7 mb 0.00 in0.0 mm 0.00 in0.0 mm 0.00 in0.0 mm
07:40 AM 23.6°F-4.7°C 10.9°F-11.7°C 58% Calm Calm 7.0 mph11.3 kmh 29.64 in1003.7 mb 0.00 in0.0 mm 0.00 in0.0 mm 0.00 in0.0 mm
07:35 AM 23.1°F-4.9°C 10.9°F-11.7°C 59% 1.0 mph E1.6 kmh E -- 29.63 in1003.4 mb 0.00 in0.0 mm 0.00 in0.0 mm 0.00 in0.0 mm
07:30 AM 22.6°F-5.2°C 11.3°F-11.5°C 61% 2.0 mph NE3.2 kmh NE -- 29.63 in1003.4 mb 0.00 in0.0 mm 0.00 in0.0 mm 0.00 in0.0 mm
07:25 AM 21.9°F-5.6°C 10.9°F-11.7°C 62% 2.0 mph WNW3.2 kmh WNW -- 29.63 in1003.4 mb 0.00 in0.0 mm 0.00 in0.0 mm 0.00 in0.0 mm
07:20 AM 21.5°F-5.8°C 10.9°F-11.7°C 63% Calm Calm -- 29.63 in1003.4 mb 0.00 in0.0 mm 0.00 in0.0 mm 0.00 in0.0 mm
07:15 AM 21.5°F-5.8°C 10.9°F-11.7°C 63% Calm Calm 3.0 mph4.8 kmh 29.63 in1003.4 mb 0.00 in0.0 mm 0.00 in0.0 mm 0.00 in0.0 mm
07:10 AM 21.8°F-5.7°C 11.1°F-11.6°C 63% 2.0 mph NW3.2 kmh NW -- 29.63 in1003.4 mb 0.00 in0.0 mm 0.00 in0.0 mm 0.00 in0.0 mm
07:05 AM 21.7°F-5.7°C 11.1°F-11.6°C 63% 1.0 mph WNW1.6 kmh WNW -- 29.62 in1003.0 mb 0.00 in0.0 mm 0.00 in0.0 mm 0.00 in0.0 mm
07:00 AM 21.6°F-5.8°C 10.9°F-11.7°C 63% Calm Calm -- 29.62 in1003.0 mb 0.00 in0.0 mm 0.00 in0.0 mm 0.00 in0.0 mm
06:55 AM 21.3°F-5.9°C 11.1°F-11.6°C 64% 1.0 mph WNW1.6 kmh WNW -- 29.62 in1003.0 mb 0.00 in0.0 mm 0.00 in0.0 mm 0.00 in0.0 mm
06:50 AM 20.5°F-6.4°C 10.2°F-12.1°C 64% Calm Calm 4.0 mph6.4 kmh 29.62 in1003.0 mb 0.00 in0.0 mm 0.00 in0.0 mm 0.00 in0.0 mm
06:45 AM 20.5°F-6.4°C 10.2°F-12.1°C 64% 2.0 mph W3.2 kmh W -- 29.62 in1003.0 mb 0.00 in0.0 mm 0.00 in0.0 mm 0.00 in0.0 mm
06:40 AM 20.6°F-6.3°C 10.0°F-12.2°C 63% 2.0 mph NW3.2 kmh NW -- 29.62 in1003.0 mb 0.00 in0.0 mm 0.00 in0.0 mm 0.00 in0.0 mm
06:35 AM 20.7°F-6.3°C 10.0°F-12.2°C 63% 1.0 mph NE1.6 kmh NE -- 29.62 in1003.0 mb 0.00 in0.0 mm 0.00 in0.0 mm 0.00 in0.0 mm
06:30 AM 21.2°F-6.0°C 9.9°F-12.3°C 61% 4.0 mph WSW6.4 kmh WSW -- 29.62 in1003.0 mb 0.00 in0.0 mm 0.00 in0.0 mm 0.00 in0.0 mm
06:25 AM 21.7°F-5.7°C 9.7°F-12.4°C 59% 2.0 mph WNW3.2 kmh WNW 4.0 mph6.4 kmh 29.62 in1003.0 mb 0.00 in0.0 mm 0.00 in0.0 mm 0.00 in0.0 mm
06:20 AM 22.4°F-5.3°C 9.5°F-12.5°C 57% 3.0 mph WNW4.8 kmh WNW -- 29.62 in1003.0 mb 0.00 in0.0 mm 0.00 in0.0 mm 0.00 in0.0 mm
06:15 AM 23.6°F-4.7°C 9.9°F-12.3°C 55% 2.0 mph NW3.2 kmh NW -- 29.62 in1003.0 mb 0.00 in0.0 mm 0.00 in0.0 mm 0.00 in0.0 mm
06:10 AM 24.6°F-4.1°C 10.0°F-12.2°C 53% Calm Calm -- 29.62 in1003.0 mb 0.00 in0.0 mm 0.00 in0.0 mm 0.00 in0.0 mm
06:05 AM 24.8°F-4.0°C 9.3°F-12.6°C 51% 4.0 mph NE6.4 kmh NE -- 29.62 in1003.0 mb 0.00 in0.0 mm 0.00 in0.0 mm 0.00 in0.0 mm
06:00 AM 25.0°F-3.9°C 9.5°F-12.5°C 51% 3.0 mph NE4.8 kmh NE 9.0 mph14.5 kmh 29.62 in1003.0 mb 0.00 in0.0 mm 0.00 in0.0 mm 0.00 in0.0 mm
05:55 AM 24.8°F-4.0°C 9.7°F-12.4°C 52% 6.0 mph ENE9.7 kmh ENE -- 29.62 in1003.0 mb 0.00 in0.0 mm 0.00 in0.0 mm 0.00 in0.0 mm
05:50 AM 25.1°F-3.8°C 10.0°F-12.2°C 52% 2.0 mph ENE3.2 kmh ENE -- 29.62 in1003.0 mb 0.00 in0.0 mm 0.00 in0.0 mm 0.00 in0.0 mm
05:45 AM 25.0°F-3.9°C 9.9°F-12.3°C 52% 10.0 mph E16.1 kmh E -- 29.62 in1003.0 mb 0.00 in0.0 mm 0.00 in0.0 mm 0.00 in0.0 mm
05:40 AM 25.0°F-3.9°C 10.8°F-11.8°C 54% 4.0 mph E6.4 kmh E -- 29.61 in1002.7 mb 0.00 in0.0 mm 0.00 in0.0 mm 0.00 in0.0 mm
05:35 AM 24.3°F-4.3°C 11.7°F-11.3°C 58% 5.0 mph ENE8.0 kmh ENE 12.0 mph19.3 kmh 29.61 in1002.7 mb 0.00 in0.0 mm 0.00 in0.0 mm 0.00 in0.0 mm
05:30 AM 23.1°F-4.9°C 12.6°F-10.8°C 63% 3.0 mph NE4.8 kmh NE -- 29.61 in1002.7 mb 0.00 in0.0 mm 0.00 in0.0 mm 0.00 in0.0 mm
05:25 AM 23.2°F-4.9°C 12.6°F-10.8°C 63% Calm Calm -- 29.61 in1002.7 mb 0.00 in0.0 mm 0.00 in0.0 mm 0.00 in0.0 mm
05:20 AM 23.5°F-4.7°C 12.7°F-10.7°C 63% Calm Calm -- 29.60 in1002.4 mb 0.00 in0.0 mm 0.00 in0.0 mm 0.00 in0.0 mm
05:15 AM 23.3°F-4.8°C 12.9°F-10.6°C 64% Calm Calm -- 29.60 in1002.4 mb 0.00 in0.0 mm 0.00 in0.0 mm 0.00 in0.0 mm
05:10 AM 23.4°F-4.8°C 12.7°F-10.7°C 63% Calm Calm 8.0 mph12.9 kmh 29.60 in1002.4 mb 0.00 in0.0 mm 0.00 in0.0 mm 0.00 in0.0 mm
05:05 AM 24.7°F-4.1°C 13.5°F-10.3°C 62% 2.0 mph SSW3.2 kmh SSW -- 29.60 in1002.4 mb 0.00 in0.0 mm 0.00 in0.0 mm 0.00 in0.0 mm
05:00 AM 24.8°F-4.0°C 13.6°F-10.2°C 62% 7.0 mph NE11.3 kmh NE -- 29.60 in1002.4 mb 0.00 in0.0 mm 0.00 in0.0 mm 0.00 in0.0 mm
04:55 AM 24.2°F-4.3°C 13.8°F-10.1°C 64% 1.0 mph NE1.6 kmh NE -- 29.60 in1002.4 mb 0.00 in0.0 mm 0.00 in0.0 mm 0.00 in0.0 mm
04:50 AM 24.0°F-4.4°C 14.0°F-10.0°C 65% 2.0 mph NE3.2 kmh NE -- 29.60 in1002.4 mb 0.00 in0.0 mm 0.00 in0.0 mm 0.00 in0.0 mm
04:45 AM 23.6°F-4.7°C 13.1°F-10.5°C 64% 4.0 mph NE6.4 kmh NE 5.0 mph8.0 kmh 29.60 in1002.4 mb 0.00 in0.0 mm 0.00 in0.0 mm 0.00 in0.0 mm
04:40 AM 24.4°F-4.2°C 13.6°F-10.2°C 63% 1.0 mph E1.6 kmh E -- 29.60 in1002.4 mb 0.00 in0.0 mm 0.00 in0.0 mm 0.00 in0.0 mm
04:35 AM 25.1°F-3.8°C 14.0°F-10.0°C 62% Calm Calm -- 29.60 in1002.4 mb 0.00 in0.0 mm 0.00 in0.0 mm 0.00 in0.0 mm
04:30 AM 25.5°F-3.6°C 14.0°F-10.0°C 61% 2.0 mph E3.2 kmh E -- 29.59 in1002.0 mb 0.00 in0.0 mm 0.00 in0.0 mm 0.00 in0.0 mm
04:25 AM 25.8°F-3.4°C 14.4°F-9.8°C 61% 2.0 mph ENE3.2 kmh ENE -- 29.59 in1002.0 mb 0.00 in0.0 mm 0.00 in0.0 mm 0.00 in0.0 mm
04:20 AM 26.1°F-3.3°C 14.2°F-9.9°C 60% 3.0 mph NE4.8 kmh NE 17.0 mph27.4 kmh 29.59 in1002.0 mb 0.00 in0.0 mm 0.00 in0.0 mm 0.00 in0.0 mm
04:15 AM 26.1°F-3.3°C 13.6°F-10.2°C 59% 6.0 mph NE9.7 kmh NE -- 29.59 in1002.0 mb 0.00 in0.0 mm 0.00 in0.0 mm 0.00 in0.0 mm
04:10 AM 26.0°F-3.3°C 13.6°F-10.2°C 59% 8.0 mph NE12.9 kmh NE -- 29.59 in1002.0 mb 0.00 in0.0 mm 0.00 in0.0 mm 0.00 in0.0 mm
04:05 AM 26.0°F-3.3°C 13.6°F-10.2°C 59% 10.0 mph NE16.1 kmh NE -- 29.59 in1002.0 mb 0.00 in0.0 mm 0.00 in0.0 mm 0.00 in0.0 mm
04:00 AM 26.1°F-3.3°C 13.3°F-10.4°C 58% 10.0 mph NE16.1 kmh NE -- 29.58 in1001.7 mb 0.00 in0.0 mm 0.00 in0.0 mm 0.00 in0.0 mm
03:55 AM 26.3°F-3.2°C 13.5°F-10.3°C 58% 8.0 mph NE12.9 kmh NE 21.0 mph33.8 kmh 29.58 in1001.7 mb 0.00 in0.0 mm 0.00 in0.0 mm 0.00 in0.0 mm
03:50 AM 26.3°F-3.2°C 13.8°F-10.1°C 59% 12.0 mph ENE19.3 kmh ENE -- 29.58 in1001.7 mb 0.00 in0.0 mm 0.00 in0.0 mm 0.00 in0.0 mm
03:45 AM 26.1°F-3.3°C 14.5°F-9.7°C 61% 9.0 mph NNE14.5 kmh NNE -- 29.58 in1001.7 mb 0.00 in0.0 mm 0.00 in0.0 mm 0.00 in0.0 mm
03:40 AM 26.1°F-3.3°C 14.5°F-9.7°C 61% 9.0 mph NNE14.5 kmh NNE -- 29.58 in1001.7 mb 0.00 in0.0 mm 0.00 in0.0 mm 0.00 in0.0 mm
03:35 AM 26.2°F-3.2°C 15.1°F-9.4°C 62% 4.0 mph NE6.4 kmh NE -- 29.57 in1001.4 mb 0.00 in0.0 mm 0.00 in0.0 mm 0.00 in0.0 mm
03:30 AM 26.2°F-3.2°C 15.1°F-9.4°C 62% 6.0 mph NNE9.7 kmh NNE 14.0 mph22.5 kmh 29.57 in1001.4 mb 0.00 in0.0 mm 0.00 in0.0 mm 0.00 in0.0 mm
03:25 AM 26.4°F-3.1°C 14.9°F-9.5°C 61% 12.0 mph NE19.3 kmh NE -- 29.57 in1001.4 mb 0.00 in0.0 mm 0.00 in0.0 mm 0.00 in0.0 mm
03:20 AM 26.5°F-3.1°C 14.4°F-9.8°C 60% 11.0 mph NE17.7 kmh NE -- 29.57 in1001.4 mb 0.00 in0.0 mm 0.00 in0.0 mm 0.00 in0.0 mm
03:15 AM 26.7°F-2.9°C 14.4°F-9.8°C 59% 10.0 mph NE16.1 kmh NE -- 29.56 in1001.0 mb 0.00 in0.0 mm 0.00 in0.0 mm 0.00 in0.0 mm
03:10 AM 26.3°F-3.2°C 15.4°F-9.2°C 63% 5.0 mph NE8.0 kmh NE -- 29.56 in1001.0 mb 0.00 in0.0 mm 0.00 in0.0 mm 0.00 in0.0 mm
03:05 AM 25.9°F-3.4°C 16.9°F-8.4°C 68% 7.0 mph ENE11.3 kmh ENE 8.0 mph12.9 kmh 29.56 in1001.0 mb 0.00 in0.0 mm 0.00 in0.0 mm 0.00 in0.0 mm
03:00 AM 26.0°F-3.3°C 16.7°F-8.5°C 67% 1.0 mph ENE1.6 kmh ENE -- 29.56 in1001.0 mb 0.00 in0.0 mm 0.00 in0.0 mm 0.00 in0.0 mm
02:55 AM 26.5°F-3.1°C 17.1°F-8.3°C 67% 4.0 mph ENE6.4 kmh ENE -- 29.56 in1001.0 mb 0.00 in0.0 mm 0.00 in0.0 mm 0.00 in0.0 mm
02:50 AM 26.5°F-3.1°C 17.2°F-8.2°C 68% 8.0 mph NE12.9 kmh NE -- 29.56 in1001.0 mb 0.00 in0.0 mm 0.00 in0.0 mm 0.00 in0.0 mm
02:45 AM 26.5°F-3.1°C 16.7°F-8.5°C 66% 7.0 mph ENE11.3 kmh ENE -- 29.55 in1000.7 mb 0.00 in0.0 mm 0.00 in0.0 mm 0.00 in0.0 mm
02:40 AM 26.6°F-3.0°C 17.1°F-8.3°C 67% 8.0 mph NE12.9 kmh NE 13.0 mph20.9 kmh 29.55 in1000.7 mb 0.00 in0.0 mm 0.00 in0.0 mm 0.00 in0.0 mm
02:35 AM 26.6°F-3.0°C 17.1°F-8.3°C 67% 12.0 mph NE19.3 kmh NE -- 29.55 in1000.7 mb 0.00 in0.0 mm 0.00 in0.0 mm 0.00 in0.0 mm
02:30 AM 26.6°F-3.0°C 17.1°F-8.3°C 67% 8.0 mph ENE12.9 kmh ENE -- 29.55 in1000.7 mb 0.00 in0.0 mm 0.00 in0.0 mm 0.00 in0.0 mm
02:25 AM 26.5°F-3.1°C 16.7°F-8.5°C 66% 9.0 mph NE14.5 kmh NE -- 29.55 in1000.7 mb 0.00 in0.0 mm 0.00 in0.0 mm 0.00 in0.0 mm
02:20 AM 26.5°F-3.1°C 17.1°F-8.3°C 67% 3.0 mph ENE4.8 kmh ENE -- 29.55 in1000.7 mb 0.00 in0.0 mm 0.00 in0.0 mm 0.00 in0.0 mm
02:15 AM 26.7°F-2.9°C 17.2°F-8.2°C 67% 5.0 mph NE8.0 kmh NE 17.0 mph27.4 kmh 29.55 in1000.7 mb 0.00 in0.0 mm 0.00 in0.0 mm 0.00 in0.0 mm
02:10 AM 26.8°F-2.9°C 16.9°F-8.4°C 66% 8.0 mph NE12.9 kmh NE -- 29.55 in1000.7 mb 0.00 in0.0 mm 0.00 in0.0 mm 0.00 in0.0 mm
02:05 AM 26.9°F-2.8°C 17.4°F-8.1°C 67% 5.0 mph NE8.0 kmh NE -- 29.55 in1000.7 mb 0.00 in0.0 mm 0.00 in0.0 mm 0.00 in0.0 mm
02:00 AM 27.0°F-2.8°C 17.4°F-8.1°C 67% 13.0 mph ENE20.9 kmh ENE -- 29.55 in1000.7 mb 0.00 in0.0 mm 0.00 in0.0 mm 0.00 in0.0 mm
01:55 AM 27.0°F-2.8°C 17.1°F-8.3°C 66% 8.0 mph NE12.9 kmh NE -- 29.55 in1000.7 mb 0.00 in0.0 mm 0.00 in0.0 mm 0.00 in0.0 mm
01:50 AM 27.0°F-2.8°C 16.7°F-8.5°C 65% 12.0 mph N19.3 kmh N 18.0 mph29.0 kmh 29.55 in1000.7 mb 0.00 in0.0 mm 0.00 in0.0 mm 0.00 in0.0 mm
01:45 AM 26.9°F-2.8°C 17.1°F-8.3°C 66% 15.0 mph ENE24.1 kmh ENE -- 29.55 in1000.7 mb 0.00 in0.0 mm 0.00 in0.0 mm 0.00 in0.0 mm
01:40 AM 26.9°F-2.8°C 17.1°F-8.3°C 66% 5.0 mph ENE8.0 kmh ENE -- 29.55 in1000.7 mb 0.00 in0.0 mm 0.00 in0.0 mm 0.00 in0.0 mm
01:35 AM 27.0°F-2.8°C 17.4°F-8.1°C 67% 11.0 mph NE17.7 kmh NE -- 29.55 in1000.7 mb 0.00 in0.0 mm 0.00 in0.0 mm 0.00 in0.0 mm
01:30 AM 26.9°F-2.8°C 17.8°F-7.9°C 68% 11.0 mph NE17.7 kmh NE -- 29.54 in1000.3 mb 0.00 in0.0 mm 0.00 in0.0 mm 0.00 in0.0 mm
01:25 AM 26.8°F-2.9°C 17.2°F-8.2°C 67% 10.0 mph NE16.1 kmh NE 13.0 mph20.9 kmh 29.54 in1000.3 mb 0.00 in0.0 mm 0.00 in0.0 mm 0.00 in0.0 mm
01:20 AM 26.6°F-3.0°C 17.1°F-8.3°C 67% 11.0 mph NE17.7 kmh NE -- 29.54 in1000.3 mb 0.00 in0.0 mm 0.00 in0.0 mm 0.00 in0.0 mm
01:15 AM 26.6°F-3.0°C 17.4°F-8.1°C 68% 11.0 mph ENE17.7 kmh ENE -- 29.54 in1000.3 mb 0.00 in0.0 mm 0.00 in0.0 mm 0.00 in0.0 mm
01:10 AM 26.4°F-3.1°C 17.6°F-8.0°C 69% 4.0 mph NE6.4 kmh NE -- 29.54 in1000.3 mb 0.00 in0.0 mm 0.00 in0.0 mm 0.00 in0.0 mm
01:05 AM 26.6°F-3.0°C 17.8°F-7.9°C 69% 5.0 mph ENE8.0 kmh ENE -- 29.54 in1000.3 mb 0.00 in0.0 mm 0.00 in0.0 mm 0.00 in0.0 mm
01:00 AM 26.5°F-3.1°C 17.6°F-8.0°C 69% 8.0 mph E12.9 kmh E 11.0 mph17.7 kmh 29.54 in1000.3 mb 0.00 in0.0 mm 0.00 in0.0 mm 0.00 in0.0 mm
12:55 AM 26.5°F-3.1°C 18.0°F-7.8°C 70% 1.0 mph NE1.6 kmh NE -- 29.54 in1000.3 mb 0.00 in0.0 mm 0.00 in0.0 mm 0.00 in0.0 mm
12:50 AM 26.7°F-2.9°C 18.3°F-7.6°C 70% 7.0 mph NE11.3 kmh NE -- 29.54 in1000.3 mb 0.00 in0.0 mm 0.00 in0.0 mm 0.00 in0.0 mm
12:45 AM 26.7°F-2.9°C 18.0°F-7.8°C 69% 7.0 mph ENE11.3 kmh ENE -- 29.54 in1000.3 mb 0.00 in0.0 mm 0.00 in0.0 mm 0.00 in0.0 mm
12:40 AM 26.8°F-2.9°C 18.3°F-7.6°C 70% 8.0 mph ENE12.9 kmh ENE -- 29.54 in1000.3 mb 0.00 in0.0 mm 0.00 in0.0 mm 0.00 in0.0 mm
12:35 AM 26.8°F-2.9°C 18.3°F-7.6°C 70% 10.0 mph NE16.1 kmh NE 16.0 mph25.7 kmh 29.54 in1000.3 mb 0.00 in0.0 mm 0.00 in0.0 mm 0.00 in0.0 mm
12:30 AM 26.7°F-2.9°C 18.7°F-7.4°C 71% 10.0 mph NE16.1 kmh NE -- 29.54 in1000.3 mb 0.00 in0.0 mm 0.00 in0.0 mm 0.00 in0.0 mm
12:25 AM 26.7°F-2.9°C 18.7°F-7.4°C 71% 10.0 mph NE16.1 kmh NE -- 29.54 in1000.3 mb 0.00 in0.0 mm 0.00 in0.0 mm 0.00 in0.0 mm
12:20 AM 26.7°F-2.9°C 19.0°F-7.2°C 72% 8.0 mph NE12.9 kmh NE -- 29.54 in1000.3 mb 0.00 in0.0 mm 0.00 in0.0 mm 0.00 in0.0 mm
12:15 AM 26.7°F-2.9°C 19.0°F-7.2°C 72% 10.0 mph NE16.1 kmh NE -- 29.53 in1000.0 mb 0.00 in0.0 mm 0.00 in0.0 mm 0.00 in0.0 mm
12:10 AM 26.6°F-3.0°C 18.9°F-7.3°C 72% 6.0 mph NE9.7 kmh NE 16.0 mph25.7 kmh 29.53 in1000.0 mb 0.00 in0.0 mm 0.00 in0.0 mm 0.00 in0.0 mm
12:05 AM 26.6°F-3.0°C 19.2°F-7.1°C 73% 9.0 mph NNE14.5 kmh NNE -- 29.53 in1000.0 mb 0.00 in0.0 mm 0.00 in0.0 mm 0.00 in0.0 mm
12:00 AM 26.7°F-2.9°C 19.0°F-7.2°C 72% 10.0 mph ENE16.1 kmh ENE -- 29.53 in1000.0 mb 0.00 in0.0 mm 0.00 in0.0 mm 0.00 in0.0 mm